Terminal Aerodrome Forecast
Issued by NWS Raleigh/Durham, NC

Home | Current Version | Previous Version | Text Only | Print | Product List | Glossary On
Versions: 1 2 3 4 5 6 7 8 9 10 11 12 13 14 15
000
FTUS42 KRAH 230540
TAFFAY
TAF
KFAY 230540Z 2306/2406 11003KT P6SM FEW035 FEW080 SCT250
      TEMPO 2309/2311 3SM BR
     FM231500 14014G23KT P6SM BKN035 BKN250
     FM240100 15014G24KT 2SM SHRA BKN015 OVC030
      TEMPO 2401/2404 20025G45KT 3/4SM +TSRA BKN007 OVC015CB=

USA.gov is the U.S. government's official web portal to all federal, state and local government web resources and services.